Exeland, Wisconsin
Current Conditions -  °F | °C
As of 6:55 AM on Tuesday 21 Oct 2014 (Local Time) from KRCX Reporting Station
Overcast Overcast  
Wind Chill:   Ceiling: 2100
Heat Index:   Visibility: 10mi
Dew Point:   Wind: 7mph
Humidity: 77%   Direction: 40°NE
Pressure: 30.21"   Gusts: NA
Location:  45.67°N, 91.24°W
Report Text: KRCX 211155Z AUTO 04006KT 10SM OVC021 05/02 A3021 RMK AO2 T00530015 10080 20033
Loading
Personal Weather Stations






























Interactive Weather Map
Tropical Storm Tracking
New forecast layout! Learn more

10-Day Weather Forecast

Advertisements
Track Severe Weather on mobile